Deadhorse Airport Deadhorse US
ICAO: PASC
IATA:
Category: Medium
Scheduled Services:

Elevation: 65 ft
TransAlt. 18000 ft.

Airport Communications:
ATIS:118.4
ANCHORAGE CNTR:134.4
CTAF:123.6
RDO:122.2
UNICOM:123

PASC Zoom In..

If you have problems with the map follow the link
https://www.worldairports.se/pages/airport.php?
ICAO=PASC

Runways:

(A) RW 05 length 6500 ft width 150 ft
ILS 109.30 / hdg 52

(B) RW 06 length 6500 ft width 100 ft
---- / hdg 52

(C) RW 23 length 6500 ft width 150 ft
---- / hdg 232

(D) RW 24 length 6500 ft width 100 ft
---- / hdg 232

Location; PASC
Day. 13 / Time. 20.53 Zulu
* Altimeter: 29.53
* Temperature: -25° c. 13°f.
* Wind from: 240° Speed 06 kn.
Dewpoint: -28° c.
Visibility: 10 Statute Miles.
Clouds: Clear (automated report).

PASC 132053Z 24006KT 10SM CLR M25/M28 A2953 RMK AO2 SLP002 I1000 I3000 T12501283 53007


Wind From 240°
Speed 06 kn.

 
 
jpsmedia worldairports.se 2019   terms of use